Time;durP1;ratioP1;P1;durP2;ratioP2;P2;SDS_P1;SDS_P2;PMS_P1;PMS_P2;Temp;Humidity;BMP_temperature;BMP_pressure;BME280_temperature;BME280_humidity;BME280_pressure;Samples;Min_cycle;Max_cycle;Signal;HPM_P1;HPM_P2
2022/05/30 00:01:42;;;;;;;12.43;4.70;;;;;;;;;;5111647;28;20467;-68
2022/05/30 00:04:08;;;;;;;15.07;4.57;;;;;;;;;;5101670;28;20036;-68
2022/05/30 00:06:33;;;;;;;12.38;4.65;;;;;;;;;;5114845;28;20019;-69
2022/05/30 00:08:58;;;;;;;16.05;4.95;;;;;;;;;;5103776;28;20024;-69
2022/05/30 00:11:25;;;;;;;12.05;5.18;;;;;;;;;;5112173;28;20019;-68
2022/05/30 00:13:50;;;;;;;9.98;4.50;;;;;;;;;;5102807;28;20020;-68
2022/05/30 00:16:16;;;;;;;11.57;4.40;;;;;;;;;;5106266;28;20093;-68
2022/05/30 00:18:42;;;;;;;7.88;3.95;;;;;;;;;;5088064;28;20020;-68
2022/05/30 00:21:08;;;;;;;8.63;5.15;;;;;;;;;;5108161;28;20497;-68
2022/05/30 00:23:33;;;;;;;13.00;5.13;;;;;;;;;;5109756;28;20027;-68
2022/05/30 00:25:58;;;;;;;11.77;5.05;;;;;;;;;;5109653;28;20012;-68
2022/05/30 00:28:24;;;;;;;8.32;4.72;;;;;;;;;;5107999;28;20023;-68
2022/05/30 00:30:49;;;;;;;8.93;4.50;;;;;;;;;;5107946;28;20030;-69
2022/05/30 00:33:15;;;;;;;11.40;4.50;;;;;;;;;;5112356;28;20459;-68
2022/05/30 00:35:40;;;;;;;14.23;5.15;;;;;;;;;;5114396;28;20474;-69
2022/05/30 00:38:06;;;;;;;10.70;4.50;;;;;;;;;;5101210;28;20050;-68
2022/05/30 00:40:32;;;;;;;11.30;4.70;;;;;;;;;;5108804;28;20371;-68
2022/05/30 00:43:16;;;;;;;9.80;4.72;;;;;;;;;;5109694;28;20024;-68
2022/05/30 00:45:41;;;;;;;;;;;;;;;;;;5103025;28;20038;-68
2022/05/30 00:48:07;;;;;;;7.88;3.88;;;;;;;;;;5113124;28;20267;-69
2022/05/30 00:50:32;;;;;;;8.82;4.00;;;;;;;;;;5113529;28;20114;-68
2022/05/30 00:52:57;;;;;;;10.30;4.28;;;;;;;;;;5109126;28;20034;-68
2022/05/30 00:55:23;;;;;;;10.35;4.47;;;;;;;;;;5112458;28;20016;-69
2022/05/30 00:57:49;;;;;;;13.30;5.20;;;;;;;;;;5102883;28;20357;-68
2022/05/30 01:00:18;;;;;;;8.43;4.18;;;;;;;;;;5107483;28;20028;-68
2022/05/30 01:02:44;;;;;;;12.32;4.80;;;;;;;;;;5105087;28;20455;-69
2022/05/30 01:07:57;;;;;;;11.60;4.90;;;;;;;;;;5103653;28;20123;-68
2022/05/30 01:10:23;;;;;;;18.88;5.25;;;;;;;;;;5110624;28;20027;-69
2022/05/30 01:12:52;;;;;;;8.68;4.60;;;;;;;;;;5110590;28;20032;-68
2022/05/30 01:15:18;;;;;;;9.65;5.10;;;;;;;;;;5110429;28;20016;-68
2022/05/30 01:17:58;;;;;;;13.10;5.13;;;;;;;;;;5105976;28;20478;-68
2022/05/30 01:20:27;;;;;;;9.35;4.40;;;;;;;;;;5098557;28;20029;-68
2022/05/30 01:22:58;;;;;;;12.80;4.55;;;;;;;;;;5109289;28;20213;-69
2022/05/30 01:25:42;;;;;;;9.43;4.32;;;;;;;;;;5110363;28;20031;-68
2022/05/30 01:28:13;;;;;;;11.70;4.38;;;;;;;;;;5102801;28;20467;-68
2022/05/30 01:30:40;;;;;;;11.98;4.80;;;;;;;;;;5090037;28;20040;-68
2022/05/30 01:33:05;;;;;;;14.45;4.95;;;;;;;;;;5106599;28;20028;-68
2022/05/30 01:35:31;;;;;;;10.05;4.22;;;;;;;;;;5098902;28;20048;-68
2022/05/30 01:37:57;;;;;;;11.10;4.45;;;;;;;;;;5102289;28;20032;-68
2022/05/30 01:40:24;;;;;;;10.20;4.90;;;;;;;;;;5105783;28;20094;-68
2022/05/30 01:42:49;;;;;;;8.32;4.35;;;;;;;;;;5113539;28;20360;-68
2022/05/30 01:45:14;;;;;;;8.05;4.32;;;;;;;;;;5108098;28;20031;-69
2022/05/30 01:47:39;;;;;;;10.52;4.22;;;;;;;;;;5104339;28;20434;-68
2022/05/30 01:50:05;;;;;;;9.55;4.70;;;;;;;;;;5113559;28;20020;-68
2022/05/30 01:52:31;;;;;;;13.07;4.32;;;;;;;;;;5104764;28;20116;-68
2022/05/30 01:54:56;;;;;;;9.38;4.63;;;;;;;;;;5106778;28;20031;-68
2022/05/30 01:57:22;;;;;;;9.93;4.20;;;;;;;;;;5105532;28;20344;-68
2022/05/30 01:59:47;;;;;;;10.68;4.65;;;;;;;;;;5111216;28;20042;-69
2022/05/30 02:02:12;;;;;;;10.88;3.92;;;;;;;;;;5106245;28;20128;-68
2022/05/30 02:04:38;;;;;;;8.20;4.30;;;;;;;;;;5104322;28;20090;-68
2022/05/30 02:07:03;;;;;;;9.43;3.72;;;;;;;;;;5100571;28;20463;-68
2022/05/30 02:09:29;;;;;;;7.13;4.30;;;;;;;;;;5101046;28;20368;-68
2022/05/30 02:11:54;;;;;;;10.55;4.13;;;;;;;;;;5107725;28;20019;-68
2022/05/30 02:14:19;;;;;;;9.13;4.25;;;;;;;;;;5102285;28;20032;-68
2022/05/30 02:17:04;;;;;;;12.10;4.00;;;;;;;;;;5104935;28;20094;-68
2022/05/30 02:19:34;;;;;;;7.30;3.72;;;;;;;;;;5107312;28;20016;-68
2022/05/30 02:22:00;;;;;;;10.57;4.10;;;;;;;;;;5108949;28;20043;-68
2022/05/30 02:24:25;;;;;;;11.57;3.95;;;;;;;;;;5110764;28;20047;-69
2022/05/30 02:26:51;;;;;;;7.43;4.05;;;;;;;;;;5108170;28;20490;-68
2022/05/30 02:29:16;;;;;;;8.13;4.28;;;;;;;;;;5109576;28;20027;-68
2022/05/30 02:31:42;;;;;;;10.30;4.22;;;;;;;;;;5100148;28;20024;-69
2022/05/30 02:36:51;;;;;;;8.35;3.90;;;;;;;;;;5100886;28;20127;-68
2022/05/30 02:39:18;;;;;;;9.00;4.07;;;;;;;;;;5106423;28;20059;-68
2022/05/30 02:41:46;;;;;;;8.40;4.18;;;;;;;;;;5112305;28;20036;-68
2022/05/30 02:44:13;;;;;;;9.40;4.35;;;;;;;;;;5100337;28;20098;-69
2022/05/30 02:46:38;;;;;;;10.93;4.25;;;;;;;;;;5102801;28;20023;-69
2022/05/30 02:49:04;;;;;;;6.65;4.05;;;;;;;;;;5105220;28;20111;-69
2022/05/30 02:51:29;;;;;;;13.60;5.05;;;;;;;;;;5110510;28;20019;-69
2022/05/30 02:53:55;;;;;;;7.25;3.97;;;;;;;;;;5079021;28;20081;-69
2022/05/30 02:56:20;;;;;;;10.35;4.38;;;;;;;;;;5111401;28;20032;-68
2022/05/30 02:58:45;;;;;;;11.38;4.13;;;;;;;;;;5106401;28;20077;-69
2022/05/30 03:01:11;;;;;;;8.23;4.05;;;;;;;;;;5111549;28;20039;-68
2022/05/30 03:03:36;;;;;;;11.73;4.25;;;;;;;;;;5104914;28;20032;-69
2022/05/30 03:06:02;;;;;;;8.23;4.10;;;;;;;;;;5106944;28;20098;-68
2022/05/30 03:08:27;;;;;;;11.50;4.20;;;;;;;;;;5105987;28;20482;-68
2022/05/30 03:10:52;;;;;;;10.25;4.40;;;;;;;;;;5109538;28;20016;-68
2022/05/30 03:13:18;;;;;;;10.35;4.45;;;;;;;;;;5110221;28;20382;-68
2022/05/30 03:15:43;;;;;;;14.23;4.60;;;;;;;;;;5104512;28;20012;-68
2022/05/30 03:18:08;;;;;;;9.23;4.13;;;;;;;;;;5097846;28;20040;-68
2022/05/30 03:20:33;;;;;;;14.23;4.57;;;;;;;;;;5104181;28;20467;-69
2022/05/30 03:22:59;;;;;;;9.95;4.32;;;;;;;;;;5103566;28;20020;-68
2022/05/30 03:25:25;;;;;;;12.77;4.35;;;;;;;;;;5101259;28;20028;-68
2022/05/30 03:27:54;;;;;;;9.73;4.45;;;;;;;;;;5101395;28;20035;-68
2022/05/30 03:30:19;;;;;;;12.82;4.38;;;;;;;;;;5102080;28;20020;-69
2022/05/30 03:32:44;;;;;;;13.48;5.05;;;;;;;;;;5103893;28;20110;-68
2022/05/30 03:35:11;;;;;;;11.85;4.38;;;;;;;;;;5107784;28;20123;-68
2022/05/30 03:37:37;;;;;;;11.13;4.55;;;;;;;;;;5102932;28;20035;-68
2022/05/30 03:40:04;;;;;;;12.68;4.55;;;;;;;;;;5104099;28;20395;-68
2022/05/30 03:42:29;;;;;;;8.25;4.50;;;;;;;;;;5108669;28;20347;-68
2022/05/30 03:44:54;;;;;;;10.00;4.25;;;;;;;;;;5104510;28;20072;-68
2022/05/30 03:47:20;;;;;;;15.32;4.40;;;;;;;;;;5107348;28;20060;-68
2022/05/30 03:49:45;;;;;;;16.15;4.55;;;;;;;;;;5103731;28;20111;-68
2022/05/30 03:52:10;;;;;;;8.80;4.88;;;;;;;;;;5102946;28;20383;-68
2022/05/30 03:54:36;;;;;;;12.38;4.43;;;;;;;;;;5108475;28;20039;-68
2022/05/30 03:57:01;;;;;;;7.20;4.18;;;;;;;;;;5091103;28;20400;-68
2022/05/30 03:59:26;;;;;;;7.57;3.90;;;;;;;;;;5111527;28;20011;-68
2022/05/30 04:01:51;;;;;;;8.63;4.18;;;;;;;;;;5104161;28;20035;-68
2022/05/30 04:04:17;;;;;;;10.90;3.88;;;;;;;;;;5111491;28;20023;-68
2022/05/30 04:06:42;;;;;;;13.05;4.32;;;;;;;;;;5110029;28;20073;-69
2022/05/30 04:09:08;;;;;;;9.98;4.32;;;;;;;;;;5099905;28;20034;-68
2022/05/30 04:11:33;;;;;;;12.30;5.15;;;;;;;;;;5105229;28;20359;-68
2022/05/30 04:13:59;;;;;;;9.35;4.03;;;;;;;;;;5102829;28;20525;-68
2022/05/30 04:16:24;;;;;;;9.98;4.65;;;;;;;;;;5103979;28;20055;-68
2022/05/30 04:18:49;;;;;;;9.60;4.30;;;;;;;;;;5097684;28;20023;-68
2022/05/30 04:21:14;;;;;;;9.63;4.45;;;;;;;;;;5110224;28;20034;-68
2022/05/30 04:23:41;;;;;;;9.82;4.35;;;;;;;;;;5099488;28;20036;-68
2022/05/30 04:26:08;;;;;;;8.35;4.07;;;;;;;;;;5101325;28;20370;-68
2022/05/30 04:28:33;;;;;;;10.18;4.10;;;;;;;;;;5104348;28;20023;-69
2022/05/30 04:30:58;;;;;;;11.90;4.70;;;;;;;;;;5101933;28;20023;-68
2022/05/30 04:33:24;;;;;;;11.02;4.70;;;;;;;;;;5101745;28;20060;-68
2022/05/30 04:35:49;;;;;;;9.25;4.68;;;;;;;;;;5104376;28;20046;-68
2022/05/30 04:38:14;;;;;;;9.10;4.78;;;;;;;;;;5106048;28;20026;-68
2022/05/30 04:40:39;;;;;;;9.02;4.57;;;;;;;;;;5113578;28;20064;-68
2022/05/30 04:43:05;;;;;;;9.43;4.70;;;;;;;;;;5109512;28;20103;-68
2022/05/30 04:45:30;;;;;;;9.02;4.50;;;;;;;;;;5105999;28;20019;-68
2022/05/30 04:47:55;;;;;;;11.70;4.10;;;;;;;;;;5112455;28;20107;-68
2022/05/30 04:50:20;;;;;;;8.43;4.57;;;;;;;;;;5105828;28;20047;-68
2022/05/30 04:52:46;;;;;;;8.88;4.80;;;;;;;;;;5101915;28;20032;-69
2022/05/30 04:55:12;;;;;;;9.38;4.55;;;;;;;;;;5107134;28;20099;-68
2022/05/30 04:57:45;;;;;;;9.57;4.38;;;;;;;;;;5104358;28;20015;-69
2022/05/30 05:00:12;;;;;;;9.23;4.05;;;;;;;;;;5100984;28;20032;-68
2022/05/30 05:02:38;;;;;;;11.48;4.55;;;;;;;;;;5106767;28;20088;-69
2022/05/30 05:05:03;;;;;;;8.23;4.18;;;;;;;;;;5102945;28;20463;-68
2022/05/30 05:07:34;;;;;;;8.68;3.88;;;;;;;;;;5113765;28;20584;-68
2022/05/30 05:10:01;;;;;;;9.02;4.40;;;;;;;;;;5105401;28;20171;-68
2022/05/30 05:12:27;;;;;;;7.88;3.92;;;;;;;;;;5105658;28;20046;-68
2022/05/30 05:14:52;;;;;;;8.25;4.20;;;;;;;;;;5109422;28;20036;-68
2022/05/30 05:17:17;;;;;;;10.02;4.57;;;;;;;;;;5103065;28;20015;-68
2022/05/30 05:19:42;;;;;;;8.35;4.15;;;;;;;;;;5105256;28;20059;-69
2022/05/30 05:22:12;;;;;;;8.77;4.00;;;;;;;;;;5105466;28;20071;-68
2022/05/30 05:24:37;;;;;;;9.82;3.80;;;;;;;;;;5106867;28;20087;-69
2022/05/30 05:27:02;;;;;;;8.07;3.40;;;;;;;;;;5111547;28;20110;-68
2022/05/30 05:29:27;;;;;;;7.65;3.72;;;;;;;;;;5104614;28;20112;-68
2022/05/30 05:31:53;;;;;;;12.65;3.92;;;;;;;;;;5107575;28;20023;-68
2022/05/30 05:34:18;;;;;;;7.57;3.78;;;;;;;;;;5099081;28;20031;-68
2022/05/30 05:36:46;;;;;;;7.63;3.67;;;;;;;;;;5102965;28;20081;-68
2022/05/30 05:39:12;;;;;;;6.47;3.60;;;;;;;;;;5100990;28;20016;-68
2022/05/30 05:41:39;;;;;;;8.82;3.85;;;;;;;;;;5114143;28;20062;-68
2022/05/30 05:44:05;;;;;;;8.02;3.03;;;;;;;;;;5102392;28;20076;-68
2022/05/30 05:46:30;;;;;;;5.88;2.95;;;;;;;;;;5107180;28;20406;-69
2022/05/30 05:48:56;;;;;;;5.18;3.22;;;;;;;;;;5107117;28;20038;-69
2022/05/30 05:51:22;;;;;;;5.80;3.20;;;;;;;;;;5106215;28;20024;-68
2022/05/30 05:53:48;;;;;;;4.85;3.40;;;;;;;;;;5107198;28;20434;-69
2022/05/30 05:56:15;;;;;;;5.57;3.25;;;;;;;;;;5082204;28;20032;-69
2022/05/30 05:58:40;;;;;;;8.25;3.30;;;;;;;;;;5108273;28;20454;-68
2022/05/30 06:01:16;;;;;;;4.93;3.03;;;;;;;;;;5098291;28;20024;-68
2022/05/30 06:03:41;;;;;;;6.43;3.28;;;;;;;;;;5109907;28;20442;-68
2022/05/30 06:06:07;;;;;;;5.45;2.83;;;;;;;;;;5112907;28;20043;-68
2022/05/30 06:08:32;;;;;;;6.13;3.10;;;;;;;;;;5109299;28;20374;-68
2022/05/30 06:11:11;;;;;;;5.60;3.15;;;;;;;;;;5110166;28;20024;-68
2022/05/30 06:13:41;;;;;;;6.10;2.78;;;;;;;;;;5101992;28;20058;-69
2022/05/30 06:16:07;;;;;;;5.20;3.00;;;;;;;;;;5104108;28;20040;-68
2022/05/30 06:18:33;;;;;;;4.90;2.67;;;;;;;;;;5102077;28;20019;-69
2022/05/30 06:20:58;;;;;;;4.72;2.70;;;;;;;;;;5107324;28;20077;-68
2022/05/30 06:23:24;;;;;;;4.63;2.90;;;;;;;;;;5105525;28;20034;-69
2022/05/30 06:25:49;;;;;;;4.18;2.50;;;;;;;;;;5101437;28;20016;-69
2022/05/30 06:28:14;;;;;;;8.65;2.67;;;;;;;;;;5105146;28;20027;-68
2022/05/30 06:30:39;;;;;;;5.00;2.28;;;;;;;;;;5108718;28;20019;-68
2022/05/30 06:33:05;;;;;;;4.60;2.78;;;;;;;;;;5112459;28;20020;-68
2022/05/30 06:35:30;;;;;;;4.25;2.50;;;;;;;;;;5111120;28;20043;-68
2022/05/30 06:37:55;;;;;;;5.40;2.20;;;;;;;;;;5104474;28;20039;-68
2022/05/30 06:40:20;;;;;;;4.53;2.40;;;;;;;;;;5105288;28;20028;-68
2022/05/30 06:42:46;;;;;;;3.53;2.22;;;;;;;;;;5104441;28;20020;-68
2022/05/30 06:45:12;;;;;;;7.28;2.80;;;;;;;;;;5107818;28;20030;-68
2022/05/30 06:47:37;;;;;;;4.60;2.53;;;;;;;;;;5106225;28;20042;-69
2022/05/30 06:50:04;;;;;;;4.38;2.70;;;;;;;;;;5106078;28;20491;-68
2022/05/30 06:52:30;;;;;;;4.65;2.50;;;;;;;;;;5110576;28;20034;-68
2022/05/30 06:54:55;;;;;;;6.82;2.20;;;;;;;;;;5113538;28;20011;-69
2022/05/30 07:00:04;;;;;;;3.08;1.92;;;;;;;;;;5108301;28;20038;-69
2022/05/30 07:02:29;;;;;;;6.05;2.38;;;;;;;;;;5113551;28;20035;-69
2022/05/30 07:04:55;;;;;;;3.92;2.08;;;;;;;;;;5114006;28;20502;-69
2022/05/30 07:07:20;;;;;;;4.28;2.08;;;;;;;;;;5106504;28;20380;-68
2022/05/30 07:09:45;;;;;;;3.75;2.10;;;;;;;;;;5106996;28;20030;-69
2022/05/30 07:12:11;;;;;;;5.00;2.05;;;;;;;;;;5114160;28;20032;-69
2022/05/30 07:14:36;;;;;;;4.95;1.90;;;;;;;;;;5114192;28;20366;-68
2022/05/30 07:17:01;;;;;;;3.42;1.90;;;;;;;;;;5112328;28;20019;-69
2022/05/30 07:19:26;;;;;;;7.40;2.10;;;;;;;;;;5103087;28;20034;-68
2022/05/30 07:21:52;;;;;;;2.75;1.80;;;;;;;;;;5109212;28;20443;-69
2022/05/30 07:24:17;;;;;;;5.97;2.08;;;;;;;;;;5110723;28;20098;-68
2022/05/30 07:26:42;;;;;;;3.88;1.40;;;;;;;;;;5110798;28;20032;-69
2022/05/30 07:29:08;;;;;;;2.83;1.88;;;;;;;;;;5096906;28;20448;-68
2022/05/30 07:31:33;;;;;;;9.27;2.03;;;;;;;;;;5110566;28;20052;-69
2022/05/30 07:33:59;;;;;;;3.83;2.30;;;;;;;;;;5113490;28;20065;-69
2022/05/30 07:36:26;;;;;;;3.20;1.90;;;;;;;;;;5104103;28;20075;-68
2022/05/30 07:38:51;;;;;;;3.85;1.83;;;;;;;;;;5113065;28;20402;-69
2022/05/30 07:41:17;;;;;;;5.13;1.90;;;;;;;;;;5101544;28;20035;-69
2022/05/30 07:43:43;;;;;;;3.03;1.70;;;;;;;;;;5111605;28;20049;-69
2022/05/30 07:46:09;;;;;;;6.10;2.10;;;;;;;;;;5112433;28;20453;-69
2022/05/30 07:48:35;;;;;;;5.30;2.08;;;;;;;;;;5104226;28;20020;-69
2022/05/30 07:51:00;;;;;;;3.85;1.83;;;;;;;;;;5098796;28;20050;-68
2022/05/30 07:53:26;;;;;;;8.23;2.47;;;;;;;;;;5105412;28;20024;-69
2022/05/30 07:55:52;;;;;;;4.40;2.10;;;;;;;;;;5108032;28;20030;-69
2022/05/30 07:58:17;;;;;;;4.60;2.50;;;;;;;;;;5104024;28;20012;-68
2022/05/30 08:00:42;;;;;;;6.10;2.90;;;;;;;;;;5109409;28;20055;-69
2022/05/30 08:03:11;;;;;;;8.75;2.75;;;;;;;;;;5113509;28;20031;-69
2022/05/30 08:05:39;;;;;;;6.55;2.38;;;;;;;;;;5107954;28;20023;-69
2022/05/30 08:08:04;;;;;;;3.85;2.00;;;;;;;;;;5108242;28;20024;-69
2022/05/30 08:10:29;;;;;;;5.88;2.10;;;;;;;;;;5113365;28;20383;-69
2022/05/30 08:12:55;;;;;;;6.15;2.50;;;;;;;;;;5110989;28;20057;-69
2022/05/30 08:15:20;;;;;;;4.63;2.30;;;;;;;;;;5106553;28;20015;-68
2022/05/30 08:17:45;;;;;;;4.90;2.22;;;;;;;;;;5114692;28;20039;-69
2022/05/30 08:20:13;;;;;;;5.88;1.90;;;;;;;;;;5116536;28;20102;-69
2022/05/30 08:22:38;;;;;;;5.20;2.17;;;;;;;;;;5115966;28;20065;-69
2022/05/30 08:25:06;;;;;;;8.73;2.90;;;;;;;;;;5117301;28;20023;-69
2022/05/30 08:27:31;;;;;;;5.90;3.05;;;;;;;;;;5116957;28;20379;-69
2022/05/30 08:29:56;;;;;;;3.30;1.85;;;;;;;;;;5117322;28;20020;-69
2022/05/30 08:32:22;;;;;;;5.00;2.30;;;;;;;;;;5117200;28;20030;-69
2022/05/30 08:34:47;;;;;;;3.55;2.33;;;;;;;;;;5116826;28;20022;-69
2022/05/30 08:37:12;;;;;;;4.38;2.50;;;;;;;;;;5117172;28;20396;-67
2022/05/30 08:42:26;;;;;;;3.20;1.90;;;;;;;;;;5116597;28;20509;-67
2022/05/30 08:44:52;;;;;;;4.85;2.70;;;;;;;;;;5116571;28;20063;-68
2022/05/30 08:47:37;;;;;;;7.00;2.90;;;;;;;;;;5116292;28;20028;-67
2022/05/30 08:50:21;;;;;;;6.43;2.30;;;;;;;;;;5115885;28;20089;-67
2022/05/30 08:52:56;;;;;;;6.03;2.47;;;;;;;;;;5097718;28;20475;-67
2022/05/30 08:55:30;;;;;;;4.22;2.67;;;;;;;;;;5097408;28;20426;-67
2022/05/30 08:57:59;;;;;;;4.20;2.38;;;;;;;;;;5114253;28;20023;-67
2022/05/30 09:00:27;;;;;;;5.15;2.42;;;;;;;;;;5074698;28;20511;-69
2022/05/30 09:03:00;;;;;;;5.75;2.33;;;;;;;;;;5114246;28;20019;-67
2022/05/30 09:05:28;;;;;;;5.15;2.75;;;;;;;;;;5107996;28;20503;-69
2022/05/30 09:07:56;;;;;;;5.05;2.60;;;;;;;;;;5105567;28;20474;-69
2022/05/30 09:10:27;;;;;;;4.93;2.33;;;;;;;;;;5110515;28;20019;-69
2022/05/30 09:12:56;;;;;;;4.75;2.20;;;;;;;;;;5115430;28;20023;-70
2022/05/30 09:15:24;;;;;;;3.92;1.60;;;;;;;;;;5109808;28;20035;-67
2022/05/30 09:17:52;;;;;;;3.80;1.60;;;;;;;;;;5115650;28;20486;-68
2022/05/30 09:20:20;;;;;;;6.00;1.70;;;;;;;;;;5115683;28;20024;-67
2022/05/30 09:22:45;;;;;;;4.22;1.70;;;;;;;;;;5114621;28;20103;-67
2022/05/30 09:27:57;;;;;;;3.35;1.48;;;;;;;;;;5105362;28;20034;-70
2022/05/30 09:30:25;;;;;;;3.00;1.20;;;;;;;;;;5108210;28;20402;-69
2022/05/30 09:32:53;;;;;;;3.00;1.08;;;;;;;;;;5104975;28;20038;-70
2022/05/30 09:35:19;;;;;;;1.77;1.10;;;;;;;;;;5104636;28;20015;-69
2022/05/30 09:37:45;;;;;;;4.80;1.27;;;;;;;;;;5111960;28;20440;-69
2022/05/30 09:40:10;;;;;;;3.28;1.55;;;;;;;;;;5115021;28;20039;-69
2022/05/30 09:42:39;;;;;;;3.28;1.65;;;;;;;;;;5115682;28;20084;-70
2022/05/30 09:45:09;;;;;;;3.78;2.22;;;;;;;;;;5114380;28;20031;-69
2022/05/30 09:47:34;;;;;;;3.88;1.88;;;;;;;;;;5114817;28;20072;-69
2022/05/30 09:50:09;;;;;;;4.45;1.80;;;;;;;;;;5104776;28;20028;-69
2022/05/30 09:52:35;;;;;;;5.80;2.67;;;;;;;;;;5104666;28;20039;-69
2022/05/30 09:55:19;;;;;;;4.40;1.92;;;;;;;;;;5102533;28;20076;-69
2022/05/30 09:57:44;;;;;;;6.65;2.08;;;;;;;;;;5110986;28;20027;-69
2022/05/30 10:00:16;;;;;;;3.53;1.58;;;;;;;;;;5107793;28;20072;-70
2022/05/30 10:02:45;;;;;;;4.13;1.75;;;;;;;;;;5100933;28;20032;-69
2022/05/30 10:05:25;;;;;;;3.28;1.40;;;;;;;;;;5089762;28;20066;-69
2022/05/30 10:07:52;;;;;;;5.43;1.33;;;;;;;;;;5110386;28;20028;-70
2022/05/30 10:10:19;;;;;;;4.82;1.48;;;;;;;;;;5092112;28;20035;-69
2022/05/30 10:13:04;;;;;;;1.98;1.00;;;;;;;;;;5110611;28;20035;-69
2022/05/30 10:15:35;;;;;;;3.65;1.40;;;;;;;;;;5109020;28;20102;-70
2022/05/30 10:18:13;;;;;;;3.97;1.30;;;;;;;;;;5110857;28;20038;-69
2022/05/30 10:20:38;;;;;;;2.50;1.00;;;;;;;;;;5104069;28;20051;-69
2022/05/30 10:28:56;;;;;;;4.10;1.00;;;;;;;;;;5093384;28;20090;-69
2022/05/30 10:31:40;;;;;;;5.63;1.27;;;;;;;;;;5109093;28;20433;-69
2022/05/30 10:34:05;;;;;;;2.47;1.10;;;;;;;;;;5110382;28;20115;-69
2022/05/30 10:36:33;;;;;;;2.87;1.00;;;;;;;;;;5105513;28;20127;-69
2022/05/30 10:39:05;;;;;;;3.35;1.20;;;;;;;;;;5109924;28;20272;-69
2022/05/30 10:41:36;;;;;;;2.85;1.00;;;;;;;;;;5109607;28;20459;-69
2022/05/30 10:44:08;;;;;;;3.58;1.40;;;;;;;;;;5110112;28;20039;-69
2022/05/30 10:46:37;;;;;;;4.15;1.48;;;;;;;;;;5101063;28;20479;-70
2022/05/30 10:49:11;;;;;;;3.28;1.27;;;;;;;;;;5089805;28;21366;-70
2022/05/30 10:51:42;;;;;;;3.58;1.17;;;;;;;;;;5093374;28;20030;-69
2022/05/30 10:54:17;;;;;;;4.28;1.30;;;;;;;;;;5105508;28;20027;-69
2022/05/30 10:56:52;;;;;;;2.22;1.13;;;;;;;;;;5099649;28;20146;-69
2022/05/30 10:59:26;;;;;;;2.42;1.17;;;;;;;;;;5094853;28;20491;-68
2022/05/30 11:01:55;;;;;;;2.80;1.50;;;;;;;;;;5106215;28;20572;-69
2022/05/30 11:04:26;;;;;;;3.45;1.60;;;;;;;;;;5098646;28;20032;-68
2022/05/30 11:06:52;;;;;;;4.57;1.35;;;;;;;;;;5099532;28;20027;-69
2022/05/30 11:09:26;;;;;;;3.05;1.27;;;;;;;;;;5091287;28;20455;-69
2022/05/30 11:11:51;;;;;;;3.55;1.70;;;;;;;;;;5097922;28;20429;-69
2022/05/30 11:14:51;;;;;;;4.28;1.20;;;;;;;;;;5082636;28;20027;-68
2022/05/30 11:17:35;;;;;;;2.78;1.08;;;;;;;;;;5054267;28;20032;-69
2022/05/30 11:20:18;;;;;;;3.78;1.20;;;;;;;;;;5095093;28;20960;-68
2022/05/30 11:22:51;;;;;;;3.17;1.30;;;;;;;;;;5098121;28;20035;-69
2022/05/30 11:25:20;;;;;;;5.25;1.65;;;;;;;;;;5093858;28;20032;-69
2022/05/30 11:28:03;;;;;;;2.33;1.33;;;;;;;;;;5095423;28;20028;-69
2022/05/30 11:30:46;;;;;;;2.92;1.60;;;;;;;;;;5091259;28;20031;-69
2022/05/30 11:33:15;;;;;;;3.00;1.42;;;;;;;;;;5093485;28;20075;-69
2022/05/30 11:35:53;;;;;;;3.85;1.40;;;;;;;;;;5102261;28;20044;-69
2022/05/30 11:38:27;;;;;;;2.15;1.13;;;;;;;;;;5092493;28;20495;-69
2022/05/30 11:40:55;;;;;;;3.75;1.40;;;;;;;;;;5093829;28;20047;-69
2022/05/30 11:43:23;;;;;;;4.13;1.10;;;;;;;;;;5098207;28;20068;-69
2022/05/30 11:45:54;;;;;;;5.15;1.40;;;;;;;;;;5087069;28;20028;-69
2022/05/30 11:48:34;;;;;;;6.65;1.50;;;;;;;;;;5108048;28;20020;-68
2022/05/30 11:51:00;;;;;;;4.30;1.50;;;;;;;;;;5096832;28;20050;-69
2022/05/30 11:53:26;;;;;;;2.22;1.20;;;;;;;;;;5099881;28;20020;-69
2022/05/30 11:55:51;;;;;;;3.55;1.45;;;;;;;;;;5111931;28;20110;-69
2022/05/30 11:58:42;;;;;;;3.13;1.40;;;;;;;;;;5086688;28;20082;-69
2022/05/30 12:01:08;;;;;;;3.47;1.48;;;;;;;;;;5060894;28;20167;-70
2022/05/30 12:03:48;;;;;;;2.90;1.15;;;;;;;;;;5075703;28;20028;-69
2022/05/30 12:06:19;;;;;;;2.58;1.10;;;;;;;;;;5094114;28;20020;-69
2022/05/30 12:08:47;;;;;;;3.08;1.10;;;;;;;;;;5094313;28;20037;-69
2022/05/30 12:11:15;;;;;;;2.00;1.10;;;;;;;;;;5099892;28;20073;-69
2022/05/30 12:13:41;;;;;;;6.15;1.27;;;;;;;;;;5094881;28;20024;-69
2022/05/30 12:16:21;;;;;;;2.20;1.05;;;;;;;;;;5101876;28;20023;-69
2022/05/30 12:24:14;;;;;;;1.92;0.95;;;;;;;;;;5095632;28;20074;-70
2022/05/30 12:26:58;;;;;;;2.97;1.10;;;;;;;;;;5094193;28;20620;-70
2022/05/30 12:29:35;;;;;;;2.63;1.17;;;;;;;;;;5105463;28;20015;-68
2022/05/30 12:32:32;;;;;;;4.60;0.98;;;;;;;;;;5108610;28;20042;-69
2022/05/30 12:34:57;;;;;;;1.27;0.88;;;;;;;;;;5088834;28;20468;-69
2022/05/30 12:37:44;;;;;;;1.33;0.85;;;;;;;;;;5100560;28;20058;-70
2022/05/30 12:40:27;;;;;;;2.45;1.35;;;;;;;;;;5098064;28;20055;-69
2022/05/30 12:43:13;;;;;;;2.38;1.13;;;;;;;;;;5099355;28;20036;-69
2022/05/30 12:45:43;;;;;;;2.70;1.20;;;;;;;;;;5100408;28;20113;-69
2022/05/30 12:48:11;;;;;;;3.30;1.40;;;;;;;;;;5096841;28;20082;-69
2022/05/30 12:50:43;;;;;;;2.10;1.10;;;;;;;;;;5100839;28;20063;-69
2022/05/30 12:53:08;;;;;;;2.35;1.00;;;;;;;;;;5105699;28;20031;-69
2022/05/30 12:55:39;;;;;;;3.05;1.40;;;;;;;;;;5102794;28;20027;-70
2022/05/30 12:58:05;;;;;;;3.65;1.45;;;;;;;;;;5098385;28;20031;-69
2022/05/30 13:00:40;;;;;;;2.60;1.40;;;;;;;;;;5093804;28;20026;-69
2022/05/30 13:03:24;;;;;;;3.35;1.33;;;;;;;;;;5101938;28;20773;-70
2022/05/30 13:06:13;;;;;;;5.07;1.70;;;;;;;;;;5096795;28;20020;-69
2022/05/30 13:09:04;;;;;;;2.58;1.10;;;;;;;;;;5084113;28;20043;-69
2022/05/30 13:11:32;;;;;;;3.90;1.48;;;;;;;;;;5087804;28;20046;-69
2022/05/30 13:14:06;;;;;;;3.38;1.00;;;;;;;;;;5089517;28;20036;-69
2022/05/30 13:16:36;;;;;;;3.50;1.27;;;;;;;;;;5096308;28;20363;-69
2022/05/30 13:19:04;;;;;;;3.85;1.10;;;;;;;;;;5096843;28;20043;-69
2022/05/30 13:21:30;;;;;;;2.47;1.10;;;;;;;;;;5100222;28;20050;-69
2022/05/30 13:23:55;;;;;;;3.05;1.40;;;;;;;;;;5094707;28;20461;-69
2022/05/30 13:26:21;;;;;;;3.25;1.10;;;;;;;;;;5100671;28;20028;-69
2022/05/30 13:28:48;;;;;;;3.17;1.10;;;;;;;;;;5093255;28;20104;-69
2022/05/30 13:31:13;;;;;;;3.25;1.10;;;;;;;;;;5091511;28;20031;-69
2022/05/30 13:33:40;;;;;;;1.98;1.17;;;;;;;;;;5104435;28;20040;-68
2022/05/30 13:36:12;;;;;;;3.97;1.20;;;;;;;;;;5106012;28;20402;-69
2022/05/30 13:38:38;;;;;;;3.45;1.40;;;;;;;;;;5114298;28;20019;-68
2022/05/30 13:41:23;;;;;;;5.40;1.27;;;;;;;;;;5110304;28;20396;-69
2022/05/30 13:43:53;;;;;;;3.42;1.08;;;;;;;;;;5114525;28;20419;-69
2022/05/30 13:46:41;;;;;;;3.33;0.90;;;;;;;;;;5114831;28;20035;-69
2022/05/30 13:49:06;;;;;;;3.65;1.23;;;;;;;;;;5088769;28;20036;-68
2022/05/30 13:51:33;;;;;;;6.25;1.20;;;;;;;;;;5112365;28;20451;-69
2022/05/30 13:53:58;;;;;;;2.92;1.10;;;;;;;;;;5114920;28;20019;-69
2022/05/30 13:56:25;;;;;;;2.85;0.93;;;;;;;;;;5114682;28;20099;-68
2022/05/30 13:58:53;;;;;;;4.38;1.38;;;;;;;;;;5114805;28;20409;-68
2022/05/30 14:01:20;;;;;;;3.15;1.13;;;;;;;;;;5109846;28;20084;-68
2022/05/30 14:03:47;;;;;;;3.80;1.25;;;;;;;;;;5100875;28;20019;-69
2022/05/30 14:06:28;;;;;;;2.00;1.23;;;;;;;;;;5113968;28;20031;-68
2022/05/30 14:08:54;;;;;;;4.20;1.55;;;;;;;;;;5084102;28;20426;-69
2022/05/30 14:11:19;;;;;;;6.85;1.10;;;;;;;;;;5108742;28;20028;-69
2022/05/30 14:13:44;;;;;;;4.13;1.40;;;;;;;;;;5104507;28;20111;-69
2022/05/30 14:16:29;;;;;;;4.35;1.50;;;;;;;;;;5101963;28;20103;-69
2022/05/30 14:18:56;;;;;;;4.00;1.30;;;;;;;;;;5106306;28;20027;-69
2022/05/30 14:21:25;;;;;;;3.83;1.20;;;;;;;;;;5114199;28;20042;-69
2022/05/30 14:23:54;;;;;;;2.95;1.30;;;;;;;;;;5112643;28;20028;-69
2022/05/30 14:26:24;;;;;;;4.93;1.75;;;;;;;;;;5107534;28;20043;-69
2022/05/30 14:28:49;;;;;;;7.35;1.38;;;;;;;;;;5113883;28;20459;-69
2022/05/30 14:31:17;;;;;;;3.92;1.30;;;;;;;;;;5108774;28;20032;-69
2022/05/30 14:33:53;;;;;;;2.35;1.00;;;;;;;;;;5112578;28;20034;-69
2022/05/30 14:36:28;;;;;;;6.07;1.30;;;;;;;;;;5105276;28;20055;-69
2022/05/30 14:38:58;;;;;;;4.10;1.10;;;;;;;;;;5105906;28;20394;-69
2022/05/30 14:41:26;;;;;;;4.80;1.20;;;;;;;;;;5099221;28;20028;-69
2022/05/30 14:43:54;;;;;;;6.03;1.42;;;;;;;;;;5107962;28;20077;-68
2022/05/30 14:46:31;;;;;;;4.85;1.08;;;;;;;;;;5107616;28;20028;-69
2022/05/30 14:48:57;;;;;;;1.85;1.10;;;;;;;;;;5108734;28;20471;-69
2022/05/30 14:51:37;;;;;;;3.78;1.20;;;;;;;;;;5109697;28;20024;-69
2022/05/30 14:54:06;;;;;;;6.90;1.10;;;;;;;;;;5106164;28;20046;-69
2022/05/30 14:56:32;;;;;;;2.95;1.00;;;;;;;;;;5100112;28;20028;-69
2022/05/30 14:58:59;;;;;;;3.45;1.00;;;;;;;;;;5082886;28;20052;-69
2022/05/30 15:01:24;;;;;;;5.05;1.15;;;;;;;;;;5090346;28;20036;-69
2022/05/30 15:04:02;;;;;;;5.55;1.33;;;;;;;;;;5106524;28;20035;-69
2022/05/30 15:06:30;;;;;;;6.78;1.52;;;;;;;;;;5108835;28;20463;-69
2022/05/30 15:08:55;;;;;;;8.32;1.30;;;;;;;;;;5103320;28;20418;-69
2022/05/30 15:11:24;;;;;;;3.05;1.45;;;;;;;;;;5109868;28;20019;-68
2022/05/30 15:13:54;;;;;;;5.13;1.77;;;;;;;;;;5105450;28;20391;-68